Bentley, Kansas
Current Conditions -  °F | °C
As of 10:53 PM on Wednesday 26 Nov 2014 (Local Time) from KICT Reporting Station
Scattered Clouds Scattered Clouds  
Wind Chill: 23°   Ceiling: Unl
Heat Index: 32°   Visibility: 10mi
Dew Point: 21°   Wind: 12mph
Humidity: 64%   Direction: 350°N
Pressure: 30.44"   Gusts: NA
Location:  37.89°N, 97.52°W
Report Text: KICT 270453Z 35010KT 10SM FEW080 SCT110 00/M06 A3044 RMK AO2 SLP315 T00001061
Loading
Personal Weather Stations






























Interactive Weather Map New forecast layout! Learn more

10-Day Weather Forecast

Advertisements
Track Severe Weather on mobile